This is the latest recevied weather packets stored in our database for station/object IW1RID-3. If no packets are shown the sender has not sent any weather packets the latest 10 day(s).
| Time | Temp. | Humidity | Pressure | Rain* | Wind** | Luminosity | Snow |
|---|---|---|---|---|---|---|---|
| 1787869835 | 26.11° C | 75% | 1073.3 hPa | - | - | - | - |
| 1787868631 | 25° C | 82% | 1073.8 hPa | - | - | - | - |
| 1787867426 | 26.11° C | 74% | 1073 hPa | - | - | - | - |
| 1787866221 | 25.56° C | 77% | 1073.5 hPa | - | - | - | - |
| 1787865016 | 25.56° C | 82% | 1073.5 hPa | - | - | - | - |
| 1787863812 | 26.67° C | 76% | 1075 hPa | - | - | - | - |
| 1787862608 | 26.67° C | 77% | 1074.5 hPa | - | - | - | - |
| 1787861402 | 26.67° C | 78% | 1074.1 hPa | - | - | - | - |
| 1787860198 | 26.67° C | 78% | 1073.4 hPa | - | - | - | - |
| 1787858993 | 27.22° C | 84% | 1072.9 hPa | - | - | - | - |
| 1787857788 | 27.78° C | 81% | 1072.6 hPa | - | - | - | - |
| 1787856583 | 27.78° C | 79% | 1072.8 hPa | - | - | - | - |
| 1787855378 | 27.78° C | 79% | 1072.2 hPa | - | - | - | - |
| 1787854172 | 28.33° C | 77% | 1071.7 hPa | - | - | - | - |
| 1787852967 | 28.89° C | 74% | 1071.5 hPa | - | - | - | - |
| 1787851761 | 29.44° C | 71% | 1071.6 hPa | - | - | - | - |
| 1787850555 | 28.89° C | 71% | 1071.8 hPa | - | - | - | - |
| 1787848142 | 30.56° C | 66% | 1072.3 hPa | - | - | - | - |
| 1787846937 | 31.67° C | 61% | 1072.5 hPa | - | - | - | - |
| 1787845731 | 31.67° C | 60% | 1072.9 hPa | - | - | - | - |
| 1787844524 | 32.22° C | 60% | 1073.4 hPa | - | - | - | - |
| 1787843320 | 32.22° C | 59% | 1073.7 hPa | - | - | - | - |
| 1787842115 | 31.11° C | 65% | 1073.7 hPa | - | - | - | - |
| 1787840911 | 30° C | 65% | 1073.5 hPa | - | - | - | - |
| 1787839705 | 31.11° C | 60% | 1073.6 hPa | - | - | - | - |
* Rain since midnight (hover to see other rain measurements)
** Current wind speed in m/s (hover to see current wind gust speed)